Flight Briefing for CPX405

Departure Arrival
Nashville International Airport (KBNA)
Click to view FAA NOTAMS
Miami International Airport (KMIA)
Click to view FAA NOTAMS
Departure Time Arrival Time
N/A N/A
Aircraft Distance
B757-200SF 702nm
Departure METAR Arrival METAR
KBNA 152138Z 35009KT 5SM -RA BKN022 OVC060 05/01 A2990 RMK AO2 P0001 T00500011 KMIA 152053Z 10006KT 10SM BKN034 OVC250 25/19 A2993 RMK AO2 SLP134 T02500189 56013
Suggested Route
TIPPN3 BRXTN BULZI NICKI Q81 ENDEW JUULI SSCOT5


View recent IFR Routes data
Notes



Charts and Procedures

Charts for KBNA
No chart available
Charts for KMIA
No chart available

Ventusky Weather